Time;durP1;ratioP1;P1;durP2;ratioP2;P2;SDS_P1;SDS_P2;PMS_P1;PMS_P2;Temp;Humidity;BMP_temperature;BMP_pressure;BME280_temperature;BME280_humidity;BME280_pressure;Samples;Min_cycle;Max_cycle;Signal;HPM_P1;HPM_P2
2022/03/04 00:01:58;;;;;;;40.25;21.60;;;10.50;41.60;;;;;;5059857;28;20036;-80
2022/03/04 00:04:24;;;;;;;41.28;21.23;;;10.40;41.50;;;;;;5084225;28;20450;-80
2022/03/04 00:06:50;;;;;;;44.42;22.38;;;10.20;41.70;;;;;;5090442;28;20103;-79
2022/03/04 00:09:15;;;;;;;39.63;21.48;;;10.10;41.70;;;;;;5077229;28;20024;-81
2022/03/04 00:11:42;;;;;;;39.88;22.38;;;9.80;42.40;;;;;;5077096;28;20438;-80
2022/03/04 00:14:08;;;;;;;39.85;22.83;;;9.40;43.80;;;;;;5068815;28;20025;-80
2022/03/04 00:16:34;;;;;;;43.22;22.17;;;9.20;44.60;;;;;;5065325;28;20031;-81
2022/03/04 00:19:07;;;;;;;43.05;22.70;;;9.10;44.70;;;;;;5083774;28;20056;-84
2022/03/04 00:21:53;;;;;;;46.97;24.42;;;9.50;44.10;;;;;;5065827;28;20107;-79
2022/03/04 00:24:21;;;;;;;43.20;22.90;;;9.90;43.40;;;;;;5083353;28;20067;-80
2022/03/04 00:26:47;;;;;;;44.03;23.73;;;10.10;42.80;;;;;;5080321;28;20477;-81
2022/03/04 00:29:14;;;;;;;42.80;23.15;;;10.20;42.50;;;;;;5076247;28;20035;-79
2022/03/04 00:31:40;;;;;;;40.30;21.30;;;10.50;42.40;;;;;;5069076;28;20032;-80
2022/03/04 00:34:07;;;;;;;41.85;21.98;;;10.70;42.10;;;;;;5091970;28;20020;-81
2022/03/04 00:36:35;;;;;;;42.42;21.63;;;10.90;41.70;;;;;;5082996;28;20077;-79
2022/03/04 00:39:01;;;;;;;44.00;21.73;;;10.90;41.50;;;;;;5076064;28;20032;-80
2022/03/04 00:41:26;;;;;;;44.08;23.77;;;10.60;41.80;;;;;;5095598;28;20025;-80
2022/03/04 00:43:52;;;;;;;42.78;23.63;;;10.30;42.70;;;;;;5086692;28;20029;-80
2022/03/04 00:46:19;;;;;;;46.47;23.05;;;10.40;42.50;;;;;;5080642;28;20032;-79
2022/03/04 00:48:45;;;;;;;44.35;22.30;;;10.70;42.20;;;;;;5061323;28;20028;-81
2022/03/04 00:51:14;;;;;;;43.80;22.20;;;10.90;41.90;;;;;;5056730;28;20100;-80
2022/03/04 00:53:41;;;;;;;42.13;22.60;;;11.00;41.60;;;;;;5084031;28;20081;-80
2022/03/04 00:56:07;;;;;;;45.53;24.00;;;10.90;41.30;;;;;;5074092;28;20059;-80
2022/03/04 00:58:35;;;;;;;42.95;22.63;;;10.90;41.30;;;;;;5065617;28;20521;-80
2022/03/04 01:01:01;;;;;;;42.15;21.67;;;11.10;41.40;;;;;;5070768;28;20032;-80
2022/03/04 01:03:26;;;;;;;42.42;22.02;;;10.70;42.00;;;;;;5064111;28;20024;-82
2022/03/04 01:05:52;;;;;;;42.95;21.83;;;10.40;42.90;;;;;;5068391;28;20056;-80
2022/03/04 01:08:18;;;;;;;42.03;21.80;;;10.60;42.40;;;;;;5069848;28;20419;-80
2022/03/04 01:10:44;;;;;;;42.03;21.40;;;10.80;42.50;;;;;;5084036;28;20541;-80
2022/03/04 01:13:10;;;;;;;39.95;22.02;;;10.90;42.30;;;;;;5071546;28;20364;-80
2022/03/04 01:15:36;;;;;;;43.75;21.35;;;11.10;42.00;;;;;;5063329;28;20042;-79
2022/03/04 01:18:02;;;;;;;42.90;22.73;;;11.00;42.00;;;;;;5084019;28;20024;-81
2022/03/04 01:20:29;;;;;;;38.90;21.65;;;11.20;41.40;;;;;;5078735;28;20028;-80
2022/03/04 01:22:55;;;;;;;42.25;21.85;;;11.20;41.40;;;;;;5056518;28;20028;-85
2022/03/04 01:25:20;;;;;;;42.90;21.30;;;11.20;41.20;;;;;;5067757;28;20020;-80
2022/03/04 01:27:46;;;;;;;41.80;22.17;;;11.10;41.70;;;;;;5063983;28;20029;-81
2022/03/04 01:30:14;;;;;;;42.70;21.48;;;11.20;42.00;;;;;;5057898;28;20025;-79
2022/03/04 01:32:40;;;;;;;42.70;21.67;;;11.30;42.00;;;;;;5060652;28;20060;-80
2022/03/04 01:35:08;;;;;;;45.65;21.88;;;11.30;41.80;;;;;;5094067;28;20467;-80
2022/03/04 01:37:34;;;;;;;43.25;21.85;;;11.40;41.40;;;;;;5069621;28;20103;-80
2022/03/04 01:40:00;;;;;;;38.50;21.55;;;11.30;41.20;;;;;;5060662;28;20024;-80
2022/03/04 01:42:26;;;;;;;43.17;21.83;;;11.40;41.50;;;;;;5080588;28;20097;-80
2022/03/04 01:44:52;;;;;;;39.75;21.10;;;11.00;41.70;;;;;;5094061;28;20073;-79
2022/03/04 01:47:18;;;;;;;43.28;21.67;;;11.00;42.00;;;;;;5092653;28;20020;-79
2022/03/04 01:49:44;;;;;;;45.80;22.67;;;10.90;42.40;;;;;;5058848;28;20467;-79
2022/03/04 01:52:09;;;;;;;39.92;21.75;;;10.90;42.20;;;;;;5086601;28;20044;-79
2022/03/04 01:54:36;;;;;;;48.75;21.60;;;11.00;42.30;;;;;;5089658;28;20417;-82
2022/03/04 01:57:02;;;;;;;39.10;21.77;;;11.00;42.50;;;;;;5069854;28;20475;-80
2022/03/04 01:59:27;;;;;;;40.72;21.30;;;11.10;42.10;;;;;;5076388;28;20379;-81
2022/03/04 02:01:54;;;;;;;43.08;22.45;;;10.90;42.30;;;;;;5075080;28;20728;-81
2022/03/04 02:04:21;;;;;;;38.58;21.48;;;10.80;42.70;;;;;;5062300;28;20070;-78
2022/03/04 02:06:47;;;;;;;38.95;20.63;;;10.90;42.80;;;;;;5073524;28;20475;-80
2022/03/04 02:09:12;;;;;;;43.67;22.20;;;11.00;42.70;;;;;;5076824;28;20039;-80
2022/03/04 02:11:43;;;;;;;45.40;22.33;;;11.10;42.50;;;;;;5075037;28;20044;-80
2022/03/04 02:14:10;;;;;;;43.22;22.17;;;11.00;42.40;;;;;;5073532;28;20352;-79
2022/03/04 02:16:43;;;;;;;43.47;21.15;;;11.00;42.50;;;;;;5062763;28;20032;-79
2022/03/04 02:19:09;;;;;;;41.90;20.88;;;10.70;42.80;;;;;;5066711;28;20031;-80
2022/03/04 02:21:36;;;;;;;42.40;21.95;;;10.80;42.60;;;;;;5068891;28;20028;-80
2022/03/04 02:24:02;;;;;;;44.65;23.08;;;10.70;42.70;;;;;;5083179;28;20502;-83
2022/03/04 02:26:28;;;;;;;49.75;24.98;;;10.70;42.80;;;;;;5093304;28;20058;-83
2022/03/04 02:28:53;;;;;;;48.22;25.65;;;10.60;43.00;;;;;;5075732;28;20029;-80
2022/03/04 02:31:21;;;;;;;59.65;30.98;;;10.40;42.80;;;;;;5072017;28;20040;-82
2022/03/04 02:33:48;;;;;;;54.47;27.35;;;9.60;44.70;;;;;;5074916;28;20051;-79
2022/03/04 02:36:14;;;;;;;46.35;24.35;;;9.30;45.70;;;;;;5074939;28;20031;-79
2022/03/04 02:38:40;;;;;;;44.55;23.48;;;9.20;46.00;;;;;;5070694;28;20020;-79
2022/03/04 02:41:06;;;;;;;43.72;22.52;;;9.20;45.90;;;;;;5060718;28;20029;-83
2022/03/04 02:43:32;;;;;;;40.03;22.08;;;9.00;45.60;;;;;;5082138;28;20085;-80
2022/03/04 02:45:58;;;;;;;43.30;22.73;;;8.50;46.40;;;;;;5089041;28;20417;-79
2022/03/04 02:48:24;;;;;;;43.22;22.67;;;8.40;47.10;;;;;;5072833;28;20024;-79
2022/03/04 02:50:50;;;;;;;44.92;23.63;;;8.40;46.70;;;;;;5072749;28;20045;-79
2022/03/04 02:53:16;;;;;;;49.40;23.90;;;8.70;46.30;;;;;;5054795;28;20036;-80
2022/03/04 02:55:42;;;;;;;41.67;22.27;;;8.90;45.90;;;;;;5055070;28;20032;-79
2022/03/04 02:58:08;;;;;;;45.25;24.27;;;9.30;45.70;;;;;;5054813;28;20028;-79
2022/03/04 03:00:34;;;;;;;46.50;23.73;;;9.50;45.10;;;;;;5072580;28;20067;-79
2022/03/04 03:03:00;;;;;;;46.25;22.70;;;9.80;44.40;;;;;;5070553;28;20024;-79
2022/03/04 03:05:26;;;;;;;48.08;24.73;;;9.60;44.90;;;;;;5082979;28;20417;-84
2022/03/04 03:07:51;;;;;;;44.50;23.38;;;9.00;46.30;;;;;;5074530;28;20063;-81
2022/03/04 03:10:17;;;;;;;42.92;22.83;;;8.50;47.10;;;;;;5075418;28;20036;-80
2022/03/04 03:12:43;;;;;;;44.03;22.38;;;8.20;48.00;;;;;;5061277;28;20494;-80
2022/03/04 03:15:10;;;;;;;42.90;22.23;;;8.30;47.60;;;;;;5089400;28;20479;-81
2022/03/04 03:17:36;;;;;;;43.85;21.50;;;8.60;47.00;;;;;;5092662;28;20024;-79
2022/03/04 03:20:05;;;;;;;49.33;22.48;;;8.80;47.10;;;;;;5073932;28;20058;-80
2022/03/04 03:22:30;;;;;;;45.10;23.27;;;9.10;46.70;;;;;;5069923;28;20471;-81
2022/03/04 03:24:56;;;;;;;44.88;22.42;;;9.40;46.90;;;;;;5054930;28;20494;-80
2022/03/04 03:27:22;;;;;;;40.92;21.90;;;9.80;46.60;;;;;;5059244;28;20032;-79
2022/03/04 03:29:48;;;;;;;47.70;23.30;;;10.10;46.20;;;;;;5092389;28;20057;-80
2022/03/04 03:32:14;;;;;;;39.33;21.67;;;10.20;45.90;;;;;;5083953;28;20062;-79
2022/03/04 03:34:40;;;;;;;45.78;22.45;;;10.30;45.80;;;;;;5062310;28;20370;-80
2022/03/04 03:37:07;;;;;;;40.72;22.20;;;10.30;45.70;;;;;;5076845;28;20025;-80
2022/03/04 03:39:32;;;;;;;44.38;22.63;;;10.20;45.80;;;;;;5076448;28;20553;-81
2022/03/04 03:41:58;;;;;;;44.47;22.33;;;10.40;45.90;;;;;;5055348;28;20060;-78
2022/03/04 03:44:24;;;;;;;42.13;22.30;;;10.50;45.80;;;;;;5064070;28;20028;-81
2022/03/04 03:46:49;;;;;;;42.42;22.58;;;10.60;45.80;;;;;;5062614;28;20497;-80
2022/03/04 03:49:15;;;;;;;39.28;21.67;;;10.70;45.80;;;;;;5078337;28;20021;-79
2022/03/04 03:51:41;;;;;;;41.80;22.05;;;10.80;45.80;;;;;;5063277;28;20131;-84
2022/03/04 03:54:07;;;;;;;38.97;21.30;;;10.80;45.70;;;;;;5064315;28;20024;-81
2022/03/04 03:56:32;;;;;;;43.63;23.00;;;10.60;46.10;;;;;;5080834;28;20021;-82
2022/03/04 03:58:58;;;;;;;44.08;22.30;;;10.60;46.40;;;;;;5074835;28;20036;-80
2022/03/04 04:01:24;;;;;;;39.45;22.05;;;10.60;46.20;;;;;;5056406;28;20021;-78
2022/03/04 04:03:50;;;;;;;38.28;21.05;;;10.80;45.70;;;;;;5072180;28;20032;-80
2022/03/04 04:06:16;;;;;;;43.15;22.13;;;10.70;45.90;;;;;;5077777;28;20025;-80
2022/03/04 04:08:42;;;;;;;40.50;22.33;;;10.20;47.30;;;;;;5057027;28;20497;-79
2022/03/04 04:11:07;;;;;;;39.50;21.95;;;10.10;46.40;;;;;;5069600;28;20530;-79
2022/03/04 04:13:33;;;;;;;37.00;21.40;;;9.90;46.50;;;;;;5082975;28;20063;-79
2022/03/04 04:15:59;;;;;;;44.58;22.77;;;9.80;46.70;;;;;;5095770;28;20020;-79
2022/03/04 04:18:25;;;;;;;40.05;21.23;;;9.90;47.00;;;;;;5061144;28;20426;-79
2022/03/04 04:20:51;;;;;;;44.53;21.42;;;10.20;46.60;;;;;;5079490;28;20021;-79
2022/03/04 04:23:17;;;;;;;42.53;22.80;;;10.40;46.30;;;;;;5080897;28;20029;-81
2022/03/04 04:25:43;;;;;;;43.22;22.55;;;10.50;46.20;;;;;;5067074;28;20028;-82
2022/03/04 04:28:09;;;;;;;41.13;21.25;;;10.70;45.90;;;;;;5068614;28;20029;-81
2022/03/04 04:30:34;;;;;;;43.85;23.33;;;10.80;45.60;;;;;;5085114;28;20020;-82
2022/03/04 04:33:00;;;;;;;38.80;20.75;;;10.60;46.10;;;;;;5074162;28;20066;-80
2022/03/04 04:35:26;;;;;;;41.38;22.05;;;10.70;45.80;;;;;;5057857;28;20025;-80
2022/03/04 04:37:51;;;;;;;40.67;22.27;;;10.70;45.50;;;;;;5075512;28;20102;-79
2022/03/04 04:40:17;;;;;;;40.05;21.45;;;10.80;45.20;;;;;;5065350;28;20024;-79
2022/03/04 04:42:43;;;;;;;37.45;21.00;;;10.90;45.30;;;;;;5095428;28;20209;-78
2022/03/04 04:45:09;;;;;;;37.58;21.02;;;11.00;45.20;;;;;;5089378;28;20028;-80
2022/03/04 04:47:35;;;;;;;39.03;21.90;;;10.90;45.00;;;;;;5075145;28;20445;-81
2022/03/04 04:50:02;;;;;;;39.20;21.90;;;11.00;45.00;;;;;;5075029;28;20025;-80
2022/03/04 04:52:28;;;;;;;39.15;21.55;;;11.00;45.30;;;;;;5064930;28;20099;-81
2022/03/04 04:54:54;;;;;;;38.25;21.33;;;10.90;45.50;;;;;;5057232;28;20112;-80
2022/03/04 04:57:20;;;;;;;37.28;19.90;;;10.80;46.20;;;;;;5056822;28;20028;-81
2022/03/04 04:59:46;;;;;;;40.85;21.27;;;10.50;47.30;;;;;;5077007;28;20024;-78
2022/03/04 05:02:12;;;;;;;39.88;20.63;;;10.40;47.80;;;;;;5060838;28;20103;-80
2022/03/04 05:04:37;;;;;;;40.90;22.50;;;10.60;47.30;;;;;;5056673;28;20062;-79
2022/03/04 05:07:03;;;;;;;37.95;20.77;;;10.90;46.60;;;;;;5074589;28;20072;-80
2022/03/04 05:09:29;;;;;;;40.55;22.10;;;11.10;46.00;;;;;;5074287;28;20387;-80
2022/03/04 05:11:55;;;;;;;42.50;22.83;;;11.00;46.30;;;;;;5075562;28;20491;-79
2022/03/04 05:14:21;;;;;;;36.72;20.90;;;11.00;46.60;;;;;;5085054;28;20027;-78
2022/03/04 05:16:46;;;;;;;45.47;22.38;;;11.00;46.70;;;;;;5074119;28;20029;-79
2022/03/04 05:19:12;;;;;;;36.83;20.45;;;11.10;46.90;;;;;;5056721;28;20062;-78
2022/03/04 05:21:38;;;;;;;43.72;22.52;;;11.10;46.50;;;;;;5074056;28;20074;-79
2022/03/04 05:24:06;;;;;;;41.55;22.40;;;11.00;46.50;;;;;;5057649;28;20029;-78
2022/03/04 05:26:35;;;;;;;39.80;22.35;;;11.10;46.50;;;;;;5056456;28;20021;-79
2022/03/04 05:29:02;;;;;;;38.10;20.95;;;11.10;46.50;;;;;;5073974;28;20104;-78
2022/03/04 05:31:28;;;;;;;38.42;22.13;;;11.10;46.30;;;;;;5056321;28;20093;-77
2022/03/04 05:33:54;;;;;;;41.20;21.70;;;11.20;46.10;;;;;;5088792;28;20024;-83
2022/03/04 05:36:21;;;;;;;41.40;22.83;;;11.30;46.00;;;;;;5087725;28;20494;-77
2022/03/04 05:38:48;;;;;;;47.03;24.17;;;11.30;45.60;;;;;;5056359;28;20411;-78
2022/03/04 05:41:15;;;;;;;46.70;25.30;;;11.20;45.70;;;;;;5056423;28;20111;-80
2022/03/04 05:43:41;;;;;;;50.90;26.33;;;11.30;45.70;;;;;;5093188;28;20123;-80
2022/03/04 05:46:07;;;;;;;45.28;25.77;;;11.30;45.70;;;;;;5073814;28;20023;-79
2022/03/04 05:48:33;;;;;;;80.55;37.25;;;11.40;45.50;;;;;;5059232;28;20050;-82
2022/03/04 05:50:59;;;;;;;70.95;34.45;;;11.50;45.40;;;;;;5055754;28;20399;-79
2022/03/04 05:53:24;;;;;;;121.18;52.03;;;11.50;45.40;;;;;;4730469;28;9999993;-77
2022/03/04 05:55:50;;;;;;;163.32;74.18;;;11.50;45.50;;;;;;5066887;28;20020;-83
2022/03/04 05:58:16;;;;;;;106.18;47.92;;;11.60;45.40;;;;;;5057193;28;20539;-79
2022/03/04 06:00:42;;;;;;;73.15;40.63;;;11.60;45.30;;;;;;5091281;28;20027;-79
2022/03/04 06:03:08;;;;;;;71.75;40.28;;;11.60;45.20;;;;;;5063026;28;20025;-77
2022/03/04 06:05:34;;;;;;;63.20;35.72;;;11.50;45.00;;;;;;5068228;28;20055;-78
2022/03/04 06:08:00;;;;;;;62.53;33.42;;;11.50;44.80;;;;;;5072155;28;20046;-80
2022/03/04 06:10:26;;;;;;;114.10;62.55;;;11.30;44.90;;;;;;5072291;28;20026;-83
2022/03/04 06:12:52;;;;;;;83.28;49.53;;;11.30;45.00;;;;;;5073898;28;20114;-79
2022/03/04 06:15:17;;;;;;;52.72;30.13;;;11.50;44.90;;;;;;5091427;28;20387;-79
2022/03/04 06:17:48;;;;;;;48.83;27.23;;;11.20;44.80;;;;;;5073089;28;20067;-79
2022/03/04 06:20:14;;;;;;;;;;;11.20;45.10;;;;;;5092085;28;20026;-78
2022/03/04 06:22:40;;;;;;;51.65;28.33;;;11.40;44.90;;;;;;5073240;28;19954;-80
2022/03/04 06:25:06;;;;;;;43.50;25.63;;;11.40;45.20;;;;;;5091161;28;20027;-82
2022/03/04 06:27:31;;;;;;;47.00;26.27;;;11.10;45.80;;;;;;5073501;28;20077;-78
2022/03/04 06:29:57;;;;;;;53.50;29.70;;;11.00;45.80;;;;;;5072536;28;20120;-78
2022/03/04 06:32:23;;;;;;;52.75;28.90;;;10.80;46.00;;;;;;5072526;28;20032;-79
2022/03/04 06:34:48;;;;;;;62.80;34.20;;;11.00;46.10;;;;;;5073080;28;20490;-78
2022/03/04 06:37:14;;;;;;;52.47;31.25;;;11.20;45.60;;;;;;5072698;28;20228;-78
2022/03/04 06:39:40;;;;;;;54.70;31.42;;;11.40;45.30;;;;;;5072780;28;20028;-79
2022/03/04 06:42:06;;;;;;;53.15;30.33;;;11.50;45.50;;;;;;5072538;28;20086;-78
2022/03/04 06:44:31;;;;;;;53.53;28.08;;;11.70;45.00;;;;;;5072665;28;20123;-78
2022/03/04 06:46:57;;;;;;;53.28;27.73;;;11.30;45.30;;;;;;5073267;28;20501;-78
2022/03/04 06:49:23;;;;;;;54.53;27.10;;;11.10;46.10;;;;;;5073190;28;20035;-79
2022/03/04 06:51:49;;;;;;;50.03;27.33;;;11.00;46.20;;;;;;5071436;28;20142;-81
2022/03/04 06:54:15;;;;;;;58.42;28.15;;;11.20;46.40;;;;;;5055688;28;20032;-82
2022/03/04 06:56:41;;;;;;;50.20;28.60;;;11.10;46.20;;;;;;5051962;28;20051;-80
2022/03/04 06:59:06;;;;;;;48.45;26.25;;;11.10;46.10;;;;;;5051447;28;20021;-80
2022/03/04 07:01:32;;;;;;;51.95;27.00;;;11.10;46.10;;;;;;5050275;28;20032;-81
2022/03/04 07:03:58;;;;;;;47.65;27.50;;;11.10;46.00;;;;;;5051627;28;20024;-80
2022/03/04 07:06:23;;;;;;;49.42;26.27;;;11.40;45.90;;;;;;5069516;28;20028;-81
2022/03/04 07:08:49;;;;;;;50.08;25.48;;;11.50;45.50;;;;;;5052792;28;20127;-81
2022/03/04 07:11:15;;;;;;;48.13;26.35;;;11.60;45.50;;;;;;5052906;28;20041;-78
2022/03/04 07:13:40;;;;;;;49.38;27.80;;;11.90;45.00;;;;;;5070328;28;20471;-86
2022/03/04 07:16:06;;;;;;;51.03;27.65;;;12.20;44.90;;;;;;5070906;28;20059;-81
2022/03/04 07:18:32;;;;;;;47.80;27.55;;;12.40;44.50;;;;;;5070563;28;20467;-80
2022/03/04 07:21:01;;;;;;;56.55;28.88;;;12.50;44.40;;;;;;5053121;28;20032;-81
2022/03/04 07:23:27;;;;;;;48.15;28.20;;;12.70;44.10;;;;;;5052897;28;20471;-79
2022/03/04 07:25:53;;;;;;;46.20;26.27;;;12.70;44.10;;;;;;5052296;28;20044;-81
2022/03/04 07:28:19;;;;;;;54.60;30.45;;;12.60;44.30;;;;;;5053202;28;20430;-81
2022/03/04 07:30:45;;;;;;;50.17;29.40;;;12.50;45.10;;;;;;5053424;28;21904;-81
2022/03/04 07:33:10;;;;;;;52.10;27.90;;;12.30;45.90;;;;;;5052912;28;20052;-82
2022/03/04 07:35:41;;;;;;;51.00;28.35;;;12.20;46.60;;;;;;5070892;28;20025;-83
2022/03/04 07:38:07;;;;;;;47.72;28.05;;;11.90;47.40;;;;;;5070928;28;20082;-82
2022/03/04 07:40:33;;;;;;;48.38;28.20;;;12.00;47.50;;;;;;5070347;28;20017;-79
2022/03/04 07:42:59;;;;;;;50.67;29.98;;;12.10;47.70;;;;;;5053377;28;20024;-82
2022/03/04 07:45:25;;;;;;;49.38;28.90;;;12.00;48.20;;;;;;5053038;28;20033;-79
2022/03/04 07:47:50;;;;;;;51.72;29.67;;;11.80;48.50;;;;;;5052840;28;20036;-81
2022/03/04 07:50:17;;;;;;;51.70;30.27;;;11.30;49.10;;;;;;5054394;28;20207;-81
2022/03/04 07:52:44;;;;;;;53.88;30.02;;;11.40;49.80;;;;;;5083368;28;20086;-80
2022/03/04 07:55:13;;;;;;;53.28;30.15;;;11.80;49.60;;;;;;5056065;28;20032;-79
2022/03/04 07:57:39;;;;;;;50.80;28.58;;;12.20;49.00;;;;;;5056136;28;20029;-82
2022/03/04 08:00:08;;;;;;;53.15;30.67;;;12.50;48.20;;;;;;5055765;28;20016;-81
2022/03/04 08:02:34;;;;;;;51.80;30.13;;;12.50;48.30;;;;;;5073696;28;20021;-80
2022/03/04 08:05:00;;;;;;;53.80;29.20;;;12.70;47.90;;;;;;5055928;28;20078;-83
2022/03/04 08:07:26;;;;;;;49.72;28.50;;;12.80;48.00;;;;;;5055956;28;20017;-82
2022/03/04 08:09:51;;;;;;;51.90;29.98;;;12.60;47.50;;;;;;5055503;28;20032;-85
2022/03/04 08:12:17;;;;;;;54.97;30.23;;;11.00;50.30;;;;;;5056144;28;20087;-80
2022/03/04 08:14:43;;;;;;;55.55;31.13;;;10.20;52.50;;;;;;5056080;28;20029;-82
2022/03/04 08:17:09;;;;;;;51.63;30.77;;;10.70;51.90;;;;;;5055630;28;20039;-81
2022/03/04 08:19:35;;;;;;;54.85;30.92;;;11.30;50.70;;;;;;5055340;28;20029;-79
2022/03/04 08:22:02;;;;;;;53.83;30.98;;;11.80;49.70;;;;;;4716428;28;9999708;-81
2022/03/04 08:24:28;;;;;;;53.58;31.98;;;12.40;48.90;;;;;;5075744;28;20062;-79
2022/03/04 08:26:54;;;;;;;51.75;30.60;;;12.60;48.40;;;;;;5075058;28;20052;-82
2022/03/04 08:29:19;;;;;;;54.10;30.73;;;12.50;48.30;;;;;;5077718;28;20032;-80
2022/03/04 08:31:45;;;;;;;53.13;31.17;;;13.00;48.50;;;;;;5096243;28;20028;-79
2022/03/04 08:34:11;;;;;;;55.83;31.27;;;13.30;47.60;;;;;;5077317;28;20467;-80
2022/03/04 08:36:36;;;;;;;52.10;30.10;;;13.30;47.40;;;;;;5077587;28;20023;-79
2022/03/04 08:39:05;;;;;;;51.22;30.85;;;13.30;47.40;;;;;;5077175;28;20031;-84
2022/03/04 08:41:34;;;;;;;58.13;30.30;;;13.30;47.20;;;;;;5095270;28;20016;-80
2022/03/04 08:44:01;;;;;;;48.38;28.30;;;12.80;47.50;;;;;;5077292;28;20020;-79
2022/03/04 08:46:26;;;;;;;52.65;29.05;;;13.10;47.30;;;;;;5095566;28;20078;-80
2022/03/04 08:48:52;;;;;;;50.05;29.30;;;13.10;46.90;;;;;;5095174;28;20028;-79
2022/03/04 08:51:18;;;;;;;48.60;29.30;;;12.80;47.50;;;;;;5074799;28;20052;-81
2022/03/04 08:53:44;;;;;;;49.42;28.30;;;12.50;48.20;;;;;;5075312;28;20063;-79
2022/03/04 08:56:10;;;;;;;53.95;29.77;;;12.00;49.60;;;;;;5074892;28;20059;-81
2022/03/04 08:58:36;;;;;;;57.17;32.22;;;11.90;50.70;;;;;;5075119;28;20474;-83
2022/03/04 09:01:02;;;;;;;56.67;31.83;;;11.60;51.50;;;;;;5092860;28;20048;-81
2022/03/04 09:03:27;;;;;;;61.20;32.97;;;11.60;51.70;;;;;;5075058;28;20028;-84
2022/03/04 09:05:53;;;;;;;70.05;33.33;;;11.40;52.70;;;;;;5074722;28;20031;-87
2022/03/04 09:08:19;;;;;;;54.83;32.10;;;11.30;53.30;;;;;;5056966;28;20028;-82
2022/03/04 09:10:45;;;;;;;58.92;31.40;;;11.60;52.70;;;;;;5056882;28;20016;-83
2022/03/04 09:13:10;;;;;;;184.77;90.47;;;11.70;52.60;;;;;;5057026;28;20032;-80
2022/03/04 09:15:36;;;;;;;315.13;131.93;;;11.50;52.90;;;;;;5056928;28;20408;-82
2022/03/04 09:18:02;;;;;;;104.20;50.58;;;11.50;53.20;;;;;;5056792;28;20082;-83
2022/03/04 09:20:28;;;;;;;117.07;58.35;;;11.40;53.50;;;;;;5056553;28;20068;-82
2022/03/04 09:22:55;;;;;;;54.72;31.40;;;11.80;53.10;;;;;;5056550;28;20021;-79
2022/03/04 09:25:22;;;;;;;49.15;29.10;;;11.80;52.80;;;;;;5074695;28;20519;-82
2022/03/04 09:27:49;;;;;;;47.97;28.30;;;11.60;53.20;;;;;;5074227;28;20108;-82
2022/03/04 09:30:16;;;;;;;143.23;100.72;;;11.70;53.60;;;;;;5073045;28;20034;-81
2022/03/04 09:32:41;;;;;;;92.80;63.20;;;11.90;53.10;;;;;;5056593;28;20110;-80
2022/03/04 09:35:07;;;;;;;56.22;30.80;;;12.00;53.00;;;;;;5074601;28;20052;-81
2022/03/04 09:37:34;;;;;;;51.40;30.17;;;12.00;53.30;;;;;;5056023;28;20035;-79
2022/03/04 09:40:00;;;;;;;48.13;28.45;;;12.30;52.50;;;;;;5056186;28;20485;-79
2022/03/04 09:42:26;;;;;;;57.80;36.85;;;12.30;52.00;;;;;;5056253;28;20598;-84
2022/03/04 09:44:51;;;;;;;50.30;30.33;;;12.20;52.50;;;;;;5073389;28;20033;-82
2022/03/04 09:47:21;;;;;;;53.72;31.02;;;12.60;52.40;;;;;;5055844;28;20036;-85
2022/03/04 09:49:48;;;;;;;53.80;30.73;;;12.60;52.40;;;;;;5073757;28;20377;-80
2022/03/04 09:52:14;;;;;;;50.50;28.60;;;12.40;52.00;;;;;;5071331;28;20410;-80
2022/03/04 09:54:40;;;;;;;51.75;29.90;;;12.50;52.00;;;;;;5053622;28;20468;-78
2022/03/04 09:57:05;;;;;;;53.78;32.78;;;12.50;51.70;;;;;;5072414;28;20025;-80
2022/03/04 09:59:31;;;;;;;50.15;30.30;;;12.80;52.00;;;;;;5055498;28;20024;-80
2022/03/04 10:02:00;;;;;;;48.03;28.88;;;13.10;51.00;;;;;;5073476;28;20039;-79
2022/03/04 10:04:27;;;;;;;56.70;36.65;;;12.90;50.40;;;;;;5073870;28;20464;-80
2022/03/04 10:06:53;;;;;;;44.55;26.10;;;13.00;50.80;;;;;;5073390;28;20159;-79
2022/03/04 10:09:41;;;;;;;54.80;31.73;;;13.20;49.50;;;;;;5055408;28;20480;-79
2022/03/04 10:12:07;;;;;;;49.80;30.35;;;13.40;49.80;;;;;;5072294;28;20552;-79
2022/03/04 10:14:33;;;;;;;44.88;26.33;;;13.60;50.50;;;;;;5073682;28;20020;-80
2022/03/04 10:16:59;;;;;;;45.03;28.45;;;13.70;49.10;;;;;;5055396;28;20060;-79
2022/03/04 10:19:40;;;;;;;70.18;45.55;;;13.70;48.80;;;;;;4833316;28;10001356;-79
2022/03/04 10:22:06;;;;;;;51.70;31.83;;;13.70;49.40;;;;;;5057566;28;20216;-79
2022/03/04 10:24:36;;;;;;;44.80;25.95;;;14.00;48.50;;;;;;5073233;28;20020;-79
2022/03/04 10:27:14;;;;;;;40.92;25.50;;;13.70;47.90;;;;;;5055117;28;20023;-79
2022/03/04 10:29:45;;;;;;;41.83;25.65;;;13.60;47.70;;;;;;5055302;28;20055;-79
2022/03/04 10:32:26;;;;;;;43.25;26.63;;;13.40;46.90;;;;;;5054689;28;20082;-79
2022/03/04 10:34:53;;;;;;;49.22;30.65;;;13.60;47.40;;;;;;5073141;28;20110;-83
2022/03/04 10:37:42;;;;;;;43.22;25.27;;;13.70;47.10;;;;;;5054871;28;20055;-79
2022/03/04 10:40:15;;;;;;;41.95;25.20;;;13.80;46.50;;;;;;5055437;28;20479;-80
2022/03/04 10:42:41;;;;;;;92.28;50.15;;;14.00;46.20;;;;;;5072724;28;20025;-82
2022/03/04 10:45:08;;;;;;;49.85;33.58;;;14.30;45.60;;;;;;5072992;28;20023;-80
2022/03/04 10:47:52;;;;;;;45.00;27.08;;;14.70;44.70;;;;;;5055006;28;20540;-79
2022/03/04 10:50:26;;;;;;;52.97;34.58;;;14.90;44.40;;;;;;5054927;28;20095;-81
2022/03/04 10:52:55;;;;;;;60.88;39.50;;;14.70;44.00;;;;;;5054874;28;20534;-79
2022/03/04 10:55:29;;;;;;;85.60;62.50;;;14.80;44.40;;;;;;5072631;28;20032;-79
2022/03/04 10:57:56;;;;;;;39.22;24.02;;;14.80;44.10;;;;;;5055236;28;20024;-80
2022/03/04 11:00:27;;;;;;;36.28;22.52;;;14.80;43.30;;;;;;5054881;28;20024;-79
2022/03/04 11:02:54;;;;;;;41.03;25.48;;;14.90;43.30;;;;;;5072921;28;20020;-81
2022/03/04 11:05:21;;;;;;;45.85;26.33;;;14.70;44.30;;;;;;5072821;28;20522;-80
2022/03/04 11:07:47;;;;;;;39.33;26.02;;;14.90;44.40;;;;;;5054674;28;20035;-79
2022/03/04 11:10:13;;;;;;;41.35;24.30;;;15.00;43.90;;;;;;5055101;28;20028;-79
2022/03/04 11:12:42;;;;;;;41.55;26.98;;;14.20;45.20;;;;;;5054444;28;20067;-80
2022/03/04 11:15:11;;;;;;;36.80;23.83;;;14.40;45.70;;;;;;5072702;28;20020;-79
2022/03/04 11:17:38;;;;;;;38.97;23.13;;;14.60;44.80;;;;;;5054899;28;20048;-80
2022/03/04 11:20:08;;;;;;;41.13;25.58;;;14.30;44.60;;;;;;5054747;28;20025;-80
2022/03/04 11:22:38;;;;;;;38.20;23.48;;;14.20;45.00;;;;;;5054475;28;20541;-79
2022/03/04 11:25:05;;;;;;;39.05;23.60;;;13.90;44.40;;;;;;5076292;28;20025;-80
2022/03/04 11:27:36;;;;;;;37.35;24.58;;;13.50;45.90;;;;;;5058028;28;20386;-79
2022/03/04 11:30:04;;;;;;;44.40;28.98;;;13.60;46.90;;;;;;5076150;28;20048;-80
2022/03/04 11:32:29;;;;;;;43.40;27.17;;;13.90;47.00;;;;;;5076372;28;20062;-82
2022/03/04 11:34:55;;;;;;;42.30;25.15;;;14.30;45.70;;;;;;5058816;28;20024;-80
2022/03/04 11:37:22;;;;;;;81.72;50.10;;;13.80;46.40;;;;;;5058215;28;20360;-80
2022/03/04 11:40:32;;;;;;;51.50;31.23;;;13.70;46.20;;;;;;5076384;28;20013;-79
2022/03/04 11:42:52;;;;;;;49.20;29.70;;;13.60;47.70;;;;;;5076133;28;20536;-79
2022/03/04 11:45:32;;;;;;;52.13;30.08;;;12.40;50.60;;;;;;5076578;28;20025;-80
2022/03/04 11:48:09;;;;;;;47.55;28.70;;;11.50;53.00;;;;;;5058151;28;20027;-84
2022/03/04 11:50:58;;;;;;;51.08;28.88;;;10.90;54.40;;;;;;5054837;28;20052;-79
2022/03/04 11:53:25;;;;;;;47.90;28.92;;;10.50;55.70;;;;;;5071861;28;20315;-82
2022/03/04 11:56:17;;;;;;;53.30;30.52;;;10.60;56.10;;;;;;5054950;28;20017;-80
2022/03/04 11:58:57;;;;;;;147.35;71.80;;;10.70;55.80;;;;;;5054907;28;20025;-79
2022/03/04 12:01:27;;;;;;;;;;;11.20;55.70;;;;;;5055291;28;20036;-80
2022/03/04 12:04:14;;;;;;;49.72;29.42;;;10.70;55.60;;;;;;5055803;28;19908;-80
2022/03/04 12:06:41;;;;;;;47.28;28.35;;;10.60;56.30;;;;;;5055860;28;20032;-80
2022/03/04 12:09:31;;;;;;;52.80;30.38;;;11.30;54.80;;;;;;5054517;28;20036;-79
2022/03/04 12:12:13;;;;;;;76.10;37.17;;;11.70;54.00;;;;;;5055923;28;20454;-84
2022/03/04 12:14:46;;;;;;;70.28;36.25;;;12.00;53.00;;;;;;5054709;28;20090;-80
2022/03/04 12:17:12;;;;;;;49.28;30.55;;;12.30;52.10;;;;;;5054569;28;20032;-80
2022/03/04 12:19:38;;;;;;;42.60;25.73;;;12.40;51.30;;;;;;5055522;28;20040;-83
2022/03/04 12:22:05;;;;;;;45.80;28.45;;;12.30;50.70;;;;;;5055763;28;20078;-80
2022/03/04 12:24:33;;;;;;;46.60;29.08;;;12.40;51.00;;;;;;5054300;28;20468;-81
2022/03/04 12:27:00;;;;;;;47.78;30.15;;;12.60;50.10;;;;;;5055542;28;20041;-79
2022/03/04 12:29:45;;;;;;;49.03;29.42;;;13.10;50.10;;;;;;5054461;28;20036;-80